sensor_id;sensor_type;location;lat;lon;timestamp;pressure;altitude;pressure_sealevel;temperature;humidity
11936;BME280;6027;48.576;9.180;2023-02-04T00:01:17;98115.97;;;5.09;100.00
11936;BME280;6027;48.576;9.180;2023-02-04T00:03:43;98118.09;;;5.04;100.00
11936;BME280;6027;48.576;9.180;2023-02-04T00:06:09;98112.03;;;5.03;100.00
11936;BME280;6027;48.576;9.180;2023-02-04T00:08:35;98111.78;;;5.06;100.00
11936;BME280;6027;48.576;9.180;2023-02-04T00:11:02;98106.53;;;5.06;100.00
11936;BME280;6027;48.576;9.180;2023-02-04T00:13:28;98109.41;;;5.03;100.00
11936;BME280;6027;48.576;9.180;2023-02-04T00:15:53;98108.44;;;5.04;100.00
11936;BME280;6027;48.576;9.180;2023-02-04T00:18:19;98108.34;;;5.06;100.00
11936;BME280;6027;48.576;9.180;2023-02-04T00:20:44;98108.34;;;5.06;100.00
11936;BME280;6027;48.576;9.180;2023-02-04T00:23:09;98109.66;;;5.11;100.00
11936;BME280;6027;48.576;9.180;2023-02-04T00:25:35;98092.47;;;5.07;100.00
11936;BME280;6027;48.576;9.180;2023-02-04T00:28:00;98090.78;;;5.06;100.00
11936;BME280;6027;48.576;9.180;2023-02-04T00:30:26;98098.78;;;5.05;100.00
11936;BME280;6027;48.576;9.180;2023-02-04T00:32:51;98097.09;;;5.04;100.00
11936;BME280;6027;48.576;9.180;2023-02-04T00:35:19;98081.34;;;5.04;100.00
11936;BME280;6027;48.576;9.180;2023-02-04T00:37:45;98088.50;;;5.02;100.00
11936;BME280;6027;48.576;9.180;2023-02-04T00:40:11;98092.56;;;5.06;100.00
11936;BME280;6027;48.576;9.180;2023-02-04T00:42:36;98095.94;;;5.08;100.00
11936;BME280;6027;48.576;9.180;2023-02-04T00:45:02;98101.91;;;5.10;100.00
11936;BME280;6027;48.576;9.180;2023-02-04T00:47:27;98100.22;;;5.09;100.00
11936;BME280;6027;48.576;9.180;2023-02-04T00:49:53;98110.03;;;5.18;100.00
11936;BME280;6027;48.576;9.180;2023-02-04T00:52:18;98110.50;;;5.12;100.00
11936;BME280;6027;48.576;9.180;2023-02-04T00:54:43;98103.34;;;5.14;100.00
11936;BME280;6027;48.576;9.180;2023-02-04T00:57:09;98104.66;;;5.19;100.00
11936;BME280;6027;48.576;9.180;2023-02-04T00:59:34;98110.03;;;5.18;100.00
11936;BME280;6027;48.576;9.180;2023-02-04T01:02:00;98105.84;;;5.15;100.00
11936;BME280;6027;48.576;9.180;2023-02-04T01:04:25;98107.41;;;5.18;100.00
11936;BME280;6027;48.576;9.180;2023-02-04T01:06:52;98107.28;;;5.19;100.00
11936;BME280;6027;48.576;9.180;2023-02-04T01:09:18;98110.38;;;5.25;100.00
11936;BME280;6027;48.576;9.180;2023-02-04T01:11:43;98113.22;;;5.21;100.00
11936;BME280;6027;48.576;9.180;2023-02-04T01:14:09;98122.44;;;5.27;100.00
11936;BME280;6027;48.576;9.180;2023-02-04T01:16:34;98125.06;;;5.27;100.00
11936;BME280;6027;48.576;9.180;2023-02-04T01:19:00;98125.06;;;5.27;100.00
11936;BME280;6027;48.576;9.180;2023-02-04T01:21:25;98129.97;;;5.32;100.00
11936;BME280;6027;48.576;9.180;2023-02-04T01:23:51;98126.63;;;5.30;100.00
11936;BME280;6027;48.576;9.180;2023-02-04T01:26:17;98133.06;;;5.37;100.00
11936;BME280;6027;48.576;9.180;2023-02-04T01:28:44;98127.00;;;5.36;100.00
11936;BME280;6027;48.576;9.180;2023-02-04T01:31:09;98120.19;;;5.34;100.00
11936;BME280;6027;48.576;9.180;2023-02-04T01:33:34;98122.69;;;5.35;100.00
11936;BME280;6027;48.576;9.180;2023-02-04T01:36:00;98127.72;;;5.38;100.00
11936;BME280;6027;48.576;9.180;2023-02-04T01:38:25;98124.69;;;5.43;100.00
11936;BME280;6027;48.576;9.180;2023-02-04T01:40:51;98128.88;;;5.45;100.00
11936;BME280;6027;48.576;9.180;2023-02-04T01:43:17;98131.63;;;5.44;100.00
11936;BME280;6027;48.576;9.180;2023-02-04T01:45:44;98132.84;;;5.51;100.00
11936;BME280;6027;48.576;9.180;2023-02-04T01:48:09;98151.00;;;5.54;100.00
11936;BME280;6027;48.576;9.180;2023-02-04T01:50:37;98156.09;;;5.67;100.00
11936;BME280;6027;48.576;9.180;2023-02-04T01:53:02;98158.03;;;5.76;100.00
11936;BME280;6027;48.576;9.180;2023-02-04T01:55:30;98159.91;;;5.85;100.00
11936;BME280;6027;48.576;9.180;2023-02-04T01:57:57;98166.28;;;5.94;100.00
11936;BME280;6027;48.576;9.180;2023-02-04T02:00:28;98165.44;;;5.93;100.00
11936;BME280;6027;48.576;9.180;2023-02-04T02:02:54;98160.41;;;6.01;100.00
11936;BME280;6027;48.576;9.180;2023-02-04T02:05:32;98162.91;;;6.03;100.00
11936;BME280;6027;48.576;9.180;2023-02-04T02:08:03;98162.66;;;6.06;100.00
11936;BME280;6027;48.576;9.180;2023-02-04T02:10:30;98161.13;;;6.03;100.00
11936;BME280;6027;48.576;9.180;2023-02-04T02:12:56;98160.16;;;6.04;100.00
11936;BME280;6027;48.576;9.180;2023-02-04T02:15:22;98156.59;;;5.94;100.00
11936;BME280;6027;48.576;9.180;2023-02-04T02:17:49;98161.97;;;5.93;100.00
11936;BME280;6027;48.576;9.180;2023-02-04T02:20:17;98165.22;;;5.96;100.00
11936;BME280;6027;48.576;9.180;2023-02-04T02:23:13;98168.63;;;5.97;100.00
11936;BME280;6027;48.576;9.180;2023-02-04T02:25:40;98161.22;;;6.02;100.00
11936;BME280;6027;48.576;9.180;2023-02-04T02:28:10;98155.25;;;6.00;100.00
11936;BME280;6027;48.576;9.180;2023-02-04T02:30:37;98163.78;;;5.92;100.00
11936;BME280;6027;48.576;9.180;2023-02-04T02:33:03;98162.56;;;5.96;100.00
11936;BME280;6027;48.576;9.180;2023-02-04T02:35:30;98167.69;;;5.86;100.00
11936;BME280;6027;48.576;9.180;2023-02-04T02:37:55;98171.78;;;5.91;100.00
11936;BME280;6027;48.576;9.180;2023-02-04T02:40:21;98171.38;;;5.84;100.00
11936;BME280;6027;48.576;9.180;2023-02-04T02:42:49;98177.13;;;5.78;100.00
11936;BME280;6027;48.576;9.180;2023-02-04T02:47:47;98182.72;;;5.84;100.00
11936;BME280;6027;48.576;9.180;2023-02-04T02:50:15;98188.34;;;5.80;100.00
11936;BME280;6027;48.576;9.180;2023-02-04T02:52:42;98191.13;;;5.89;100.00
11936;BME280;6027;48.576;9.180;2023-02-04T02:55:16;98201.72;;;5.88;100.00
11936;BME280;6027;48.576;9.180;2023-02-04T02:57:47;98201.59;;;5.78;100.00
11936;BME280;6027;48.576;9.180;2023-02-04T03:00:27;98197.66;;;5.84;100.00
11936;BME280;6027;48.576;9.180;2023-02-04T03:02:59;98189.94;;;5.94;100.00
11936;BME280;6027;48.576;9.180;2023-02-04T03:05:29;98202.25;;;5.93;100.00
11936;BME280;6027;48.576;9.180;2023-02-04T03:07:57;98192.81;;;5.91;100.00
11936;BME280;6027;48.576;9.180;2023-02-04T03:10:22;98189.34;;;5.90;100.00
11936;BME280;6027;48.576;9.180;2023-02-04T03:12:48;98205.22;;;6.00;100.00
11936;BME280;6027;48.576;9.180;2023-02-04T03:15:14;98207.50;;;5.93;100.00
11936;BME280;6027;48.576;9.180;2023-02-04T03:17:40;98201.84;;;5.86;100.00
11936;BME280;6027;48.576;9.180;2023-02-04T03:20:06;98202.47;;;5.90;100.00
11936;BME280;6027;48.576;9.180;2023-02-04T03:22:32;98208.22;;;5.95;100.00
11936;BME280;6027;48.576;9.180;2023-02-04T03:24:58;98204.16;;;5.91;100.00
11936;BME280;6027;48.576;9.180;2023-02-04T03:27:24;98206.28;;;5.97;100.00
11936;BME280;6027;48.576;9.180;2023-02-04T03:29:50;98223.38;;;6.03;100.00
11936;BME280;6027;48.576;9.180;2023-02-04T03:32:15;98220.88;;;6.01;100.00
11936;BME280;6027;48.576;9.180;2023-02-04T03:34:41;98221.94;;;5.99;100.00
11936;BME280;6027;48.576;9.180;2023-02-04T03:37:06;98232.81;;;6.05;100.00
11936;BME280;6027;48.576;9.180;2023-02-04T03:39:32;98233.66;;;6.06;100.00
11936;BME280;6027;48.576;9.180;2023-02-04T03:41:57;98243.22;;;6.07;100.00
11936;BME280;6027;48.576;9.180;2023-02-04T03:44:23;98235.81;;;6.01;100.00
11936;BME280;6027;48.576;9.180;2023-02-04T03:46:52;98244.78;;;6.09;100.00
11936;BME280;6027;48.576;9.180;2023-02-04T03:49:23;98251.91;;;6.18;100.00
11936;BME280;6027;48.576;9.180;2023-02-04T03:51:49;98263.06;;;6.11;100.00
11936;BME280;6027;48.576;9.180;2023-02-04T03:54:14;98259.47;;;6.12;100.00
11936;BME280;6027;48.576;9.180;2023-02-04T03:56:40;98265.81;;;6.09;100.00
11936;BME280;6027;48.576;9.180;2023-02-04T03:59:05;98258.16;;;6.06;100.00
11936;BME280;6027;48.576;9.180;2023-02-04T04:01:31;98262.22;;;6.10;100.00
11936;BME280;6027;48.576;9.180;2023-02-04T04:03:57;98262.94;;;6.12;100.00
11936;BME280;6027;48.576;9.180;2023-02-04T04:06:22;98264.63;;;6.13;100.00
11936;BME280;6027;48.576;9.180;2023-02-04T04:08:48;98267.13;;;6.15;100.00
11936;BME280;6027;48.576;9.180;2023-02-04T04:11:13;98273.69;;;6.09;100.00
11936;BME280;6027;48.576;9.180;2023-02-04T04:13:39;98274.19;;;6.14;100.00
11936;BME280;6027;48.576;9.180;2023-02-04T04:16:04;98280.97;;;6.17;100.00
11936;BME280;6027;48.576;9.180;2023-02-04T04:18:30;98280.50;;;6.23;100.00
11936;BME280;6027;48.576;9.180;2023-02-04T04:20:57;98273.91;;;6.17;100.00
11936;BME280;6027;48.576;9.180;2023-02-04T04:23:23;98270.38;;;5.96;100.00
11936;BME280;6027;48.576;9.180;2023-02-04T04:25:49;98266.03;;;6.06;100.00
11936;BME280;6027;48.576;9.180;2023-02-04T04:28:14;98274.28;;;6.02;100.00
11936;BME280;6027;48.576;9.180;2023-02-04T04:30:40;98283.63;;;5.95;100.00
11936;BME280;6027;48.576;9.180;2023-02-04T04:33:05;98275.13;;;5.91;100.00
11936;BME280;6027;48.576;9.180;2023-02-04T04:35:31;98281.47;;;5.88;100.00
11936;BME280;6027;48.576;9.180;2023-02-04T04:37:56;98271.25;;;5.73;100.00
11936;BME280;6027;48.576;9.180;2023-02-04T04:40:22;98273.66;;;5.76;100.00
11936;BME280;6027;48.576;9.180;2023-02-04T04:42:47;98282.59;;;5.84;100.00
11936;BME280;6027;48.576;9.180;2023-02-04T04:45:13;98278.47;;;5.93;100.00
11936;BME280;6027;48.576;9.180;2023-02-04T04:47:38;98282.66;;;5.96;100.00
11936;BME280;6027;48.576;9.180;2023-02-04T04:50:04;98287.44;;;5.91;100.00
11936;BME280;6027;48.576;9.180;2023-02-04T04:52:30;98285.53;;;6.04;100.00
11936;BME280;6027;48.576;9.180;2023-02-04T04:54:55;98281.56;;;5.98;100.00
11936;BME280;6027;48.576;9.180;2023-02-04T04:57:21;98288.75;;;5.96;100.00
11936;BME280;6027;48.576;9.180;2023-02-04T04:59:46;98302.59;;;5.98;100.00
11936;BME280;6027;48.576;9.180;2023-02-04T05:02:12;98297.31;;;5.87;100.00
11936;BME280;6027;48.576;9.180;2023-02-04T05:04:37;98289.72;;;5.95;100.00
11936;BME280;6027;48.576;9.180;2023-02-04T05:07:02;98287.44;;;5.91;100.00
11936;BME280;6027;48.576;9.180;2023-02-04T05:09:28;98286.38;;;5.93;100.00
11936;BME280;6027;48.576;9.180;2023-02-04T05:11:54;98295.75;;;5.84;100.00
11936;BME280;6027;48.576;9.180;2023-02-04T05:14:20;98287.03;;;5.84;100.00
11936;BME280;6027;48.576;9.180;2023-02-04T05:16:45;98286.91;;;5.85;100.00
11936;BME280;6027;48.576;9.180;2023-02-04T05:19:10;98288.09;;;5.81;100.00
11936;BME280;6027;48.576;9.180;2023-02-04T05:21:36;98286.59;;;5.90;100.00
11936;BME280;6027;48.576;9.180;2023-02-04T05:24:01;98286.06;;;5.85;100.00
11936;BME280;6027;48.576;9.180;2023-02-04T05:26:27;98289.22;;;5.90;100.00
11936;BME280;6027;48.576;9.180;2023-02-04T05:28:52;98288.22;;;5.80;100.00
11936;BME280;6027;48.576;9.180;2023-02-04T05:31:17;98290.84;;;5.80;100.00
11936;BME280;6027;48.576;9.180;2023-02-04T05:33:43;98296.59;;;5.74;100.00
11936;BME280;6027;48.576;9.180;2023-02-04T05:36:08;98288.94;;;5.71;100.00
11936;BME280;6027;48.576;9.180;2023-02-04T05:38:34;98285.56;;;5.58;100.00
11936;BME280;6027;48.576;9.180;2023-02-04T05:40:59;98296.25;;;5.43;100.00
11936;BME280;6027;48.576;9.180;2023-02-04T05:43:24;98312.06;;;5.54;100.00
11936;BME280;6027;48.576;9.180;2023-02-04T05:45:50;98316.38;;;5.67;100.00
11936;BME280;6027;48.576;9.180;2023-02-04T05:48:15;98320.25;;;5.74;100.00
11936;BME280;6027;48.576;9.180;2023-02-04T05:50:41;98312.31;;;5.63;100.00
11936;BME280;6027;48.576;9.180;2023-02-04T05:53:06;98320.41;;;5.60;100.00
11936;BME280;6027;48.576;9.180;2023-02-04T05:55:32;98310.53;;;5.63;100.00
11936;BME280;6027;48.576;9.180;2023-02-04T05:57:57;98314.09;;;5.51;100.00
11936;BME280;6027;48.576;9.180;2023-02-04T06:00:23;98317.56;;;5.51;100.00
11936;BME280;6027;48.576;9.180;2023-02-04T06:02:48;98312.91;;;5.55;100.00
11936;BME280;6027;48.576;9.180;2023-02-04T06:05:14;98314.47;;;5.58;100.00
11936;BME280;6027;48.576;9.180;2023-02-04T06:07:39;98318.41;;;5.63;100.00
11936;BME280;6027;48.576;9.180;2023-02-04T06:10:05;98284.31;;;5.39;100.00
11936;BME280;6027;48.576;9.180;2023-02-04T06:12:31;98303.09;;;5.46;100.00
11936;BME280;6027;48.576;9.180;2023-02-04T06:14:57;98311.69;;;5.48;100.00
11936;BME280;6027;48.576;9.180;2023-02-04T06:17:22;98326.59;;;5.47;100.00
11936;BME280;6027;48.576;9.180;2023-02-04T06:19:48;98340.25;;;5.64;100.00
11936;BME280;6027;48.576;9.180;2023-02-04T06:22:13;98344.66;;;5.52;100.00
11936;BME280;6027;48.576;9.180;2023-02-04T06:24:39;98351.13;;;5.59;100.00
11936;BME280;6027;48.576;9.180;2023-02-04T06:27:05;98348.38;;;5.61;100.00
11936;BME280;6027;48.576;9.180;2023-02-04T06:29:30;98339.75;;;5.59;100.00
11936;BME280;6027;48.576;9.180;2023-02-04T06:31:56;98353.19;;;5.67;100.00
11936;BME280;6027;48.576;9.180;2023-02-04T06:34:21;98371.84;;;5.75;100.00
11936;BME280;6027;48.576;9.180;2023-02-04T06:36:47;98367.66;;;5.72;100.00
11936;BME280;6027;48.576;9.180;2023-02-04T06:39:16;98371.13;;;5.73;100.00
11936;BME280;6027;48.576;9.180;2023-02-04T06:41:41;98365.38;;;5.68;100.00
11936;BME280;6027;48.576;9.180;2023-02-04T06:44:09;98380.44;;;5.77;100.00
11936;BME280;6027;48.576;9.180;2023-02-04T06:46:35;98380.44;;;5.77;100.00
11936;BME280;6027;48.576;9.180;2023-02-04T06:49:00;98384.03;;;5.76;100.00
11936;BME280;6027;48.576;9.180;2023-02-04T06:51:26;98384.38;;;5.71;100.00
11936;BME280;6027;48.576;9.180;2023-02-04T06:53:51;98387.22;;;5.68;100.00
11936;BME280;6027;48.576;9.180;2023-02-04T06:56:17;98381.94;;;5.57;100.00
11936;BME280;6027;48.576;9.180;2023-02-04T06:58:42;98377.75;;;5.54;100.00
11936;BME280;6027;48.576;9.180;2023-02-04T07:01:14;98388.03;;;5.58;100.00
11936;BME280;6027;48.576;9.180;2023-02-04T07:03:41;98390.41;;;5.61;100.00
11936;BME280;6027;48.576;9.180;2023-02-04T07:06:07;98395.94;;;5.69;100.00
11936;BME280;6027;48.576;9.180;2023-02-04T07:13:38;98386.19;;;5.47;100.00
11936;BME280;6027;48.576;9.180;2023-02-04T07:18:45;98392.50;;;5.44;100.00
11936;BME280;6027;48.576;9.180;2023-02-04T07:21:20;98393.09;;;5.37;100.00
11936;BME280;6027;48.576;9.180;2023-02-04T07:23:45;98413.41;;;5.46;100.00
11936;BME280;6027;48.576;9.180;2023-02-04T07:26:11;98414.63;;;5.53;100.00
11936;BME280;6027;48.576;9.180;2023-02-04T07:31:04;98431.25;;;5.53;100.00
11936;BME280;6027;48.576;9.180;2023-02-04T07:33:30;98426.72;;;5.55;100.00
11936;BME280;6027;48.576;9.180;2023-02-04T07:35:55;98443.91;;;5.60;100.00
11936;BME280;6027;48.576;9.180;2023-02-04T07:38:20;98447.00;;;5.53;100.00
11936;BME280;6027;48.576;9.180;2023-02-04T07:40:46;98439.22;;;5.52;100.00
11936;BME280;6027;48.576;9.180;2023-02-04T07:43:11;98433.47;;;5.47;100.00
11936;BME280;6027;48.576;9.180;2023-02-04T07:45:37;98432.91;;;5.54;100.00
11936;BME280;6027;48.576;9.180;2023-02-04T07:48:02;98438.91;;;5.57;100.00
11936;BME280;6027;48.576;9.180;2023-02-04T07:50:28;98436.72;;;5.50;100.00
11936;BME280;6027;48.576;9.180;2023-02-04T07:52:53;98445.97;;;5.43;100.00
11936;BME280;6027;48.576;9.180;2023-02-04T07:55:18;98444.72;;;5.49;100.00
11936;BME280;6027;48.576;9.180;2023-02-04T07:57:44;98445.31;;;5.52;100.00
11936;BME280;6027;48.576;9.180;2023-02-04T08:00:10;98452.47;;;5.50;100.00
11936;BME280;6027;48.576;9.180;2023-02-04T08:02:39;98463.00;;;5.50;100.00
11936;BME280;6027;48.576;9.180;2023-02-04T08:07:45;98431.22;;;5.30;100.00
11936;BME280;6027;48.576;9.180;2023-02-04T08:10:13;98447.78;;;5.43;100.00
11936;BME280;6027;48.576;9.180;2023-02-04T08:12:38;98469.31;;;5.48;100.00
11936;BME280;6027;48.576;9.180;2023-02-04T08:15:04;98470.03;;;5.50;100.00
11936;BME280;6027;48.576;9.180;2023-02-04T08:17:32;98467.81;;;5.57;100.00
11936;BME280;6027;48.576;9.180;2023-02-04T08:19:58;98470.19;;;5.60;100.00
11936;BME280;6027;48.576;9.180;2023-02-04T08:22:23;98480.22;;;5.54;100.00
11936;BME280;6027;48.576;9.180;2023-02-04T08:24:48;98469.19;;;5.49;100.00
11936;BME280;6027;48.576;9.180;2023-02-04T08:27:14;98469.94;;;5.39;100.00
11936;BME280;6027;48.576;9.180;2023-02-04T08:29:39;98474.25;;;5.40;100.00
11936;BME280;6027;48.576;9.180;2023-02-04T08:32:05;98473.28;;;5.53;100.00
11936;BME280;6027;48.576;9.180;2023-02-04T08:34:30;98484.88;;;5.62;100.00
11936;BME280;6027;48.576;9.180;2023-02-04T08:36:56;98478.06;;;5.60;100.00
11936;BME280;6027;48.576;9.180;2023-02-04T08:39:21;98485.19;;;5.70;100.00
11936;BME280;6027;48.576;9.180;2023-02-04T08:41:47;98478.34;;;5.68;100.00
11936;BME280;6027;48.576;9.180;2023-02-04T08:44:15;98488.34;;;5.63;100.00
11936;BME280;6027;48.576;9.180;2023-02-04T08:46:41;98490.03;;;5.64;100.00
11936;BME280;6027;48.576;9.180;2023-02-04T08:49:06;98494.06;;;5.57;100.00
11936;BME280;6027;48.576;9.180;2023-02-04T08:51:32;98486.19;;;5.57;100.00
11936;BME280;6027;48.576;9.180;2023-02-04T08:53:57;98506.03;;;5.61;100.00
11936;BME280;6027;48.576;9.180;2023-02-04T08:56:23;98502.91;;;5.55;100.00
11936;BME280;6027;48.576;9.180;2023-02-04T08:58:48;98505.81;;;5.64;100.00
11936;BME280;6027;48.576;9.180;2023-02-04T09:01:14;98502.06;;;5.55;100.00
11936;BME280;6027;48.576;9.180;2023-02-04T09:03:39;98508.66;;;5.61;100.00
11936;BME280;6027;48.576;9.180;2023-02-04T09:06:06;98509.69;;;5.58;100.00
11936;BME280;6027;48.576;9.180;2023-02-04T09:08:32;98513.16;;;5.59;100.00
11936;BME280;6027;48.576;9.180;2023-02-04T09:10:58;98525.66;;;5.68;100.00
11936;BME280;6027;48.576;9.180;2023-02-04T09:13:23;98523.31;;;5.76;100.00
11936;BME280;6027;48.576;9.180;2023-02-04T09:15:48;98527.63;;;5.77;100.00
11936;BME280;6027;48.576;9.180;2023-02-04T09:18:14;98517.50;;;5.83;100.00
11936;BME280;6027;48.576;9.180;2023-02-04T09:20:43;98522.75;;;5.83;100.00
11936;BME280;6027;48.576;9.180;2023-02-04T09:23:08;98528.31;;;5.92;100.00
11936;BME280;6027;48.576;9.180;2023-02-04T09:25:40;98533.16;;;5.85;100.00
11936;BME280;6027;48.576;9.180;2023-02-04T09:28:06;98530.41;;;5.86;100.00
11936;BME280;6027;48.576;9.180;2023-02-04T09:30:34;98536.09;;;5.93;100.00
11936;BME280;6027;48.576;9.180;2023-02-04T09:33:00;98538.09;;;5.89;100.00
11936;BME280;6027;48.576;9.180;2023-02-04T09:35:25;98536.09;;;5.80;100.00
11936;BME280;6027;48.576;9.180;2023-02-04T09:37:51;98547.81;;;5.76;100.00
11936;BME280;6027;48.576;9.180;2023-02-04T09:40:17;98543.38;;;5.89;100.00
11936;BME280;6027;48.576;9.180;2023-02-04T09:42:46;98551.16;;;5.91;100.00
11936;BME280;6027;48.576;9.180;2023-02-04T09:45:34;98558.72;;;5.83;100.00
11936;BME280;6027;48.576;9.180;2023-02-04T09:48:02;98558.31;;;5.89;100.00
11936;BME280;6027;48.576;9.180;2023-02-04T09:50:29;98562.19;;;5.96;100.00
11936;BME280;6027;48.576;9.180;2023-02-04T09:53:01;98571.50;;;6.00;100.00
11936;BME280;6027;48.576;9.180;2023-02-04T09:55:36;98569.59;;;6.02;100.00
11936;BME280;6027;48.576;9.180;2023-02-04T09:58:07;98578.66;;;5.98;100.00
11936;BME280;6027;48.576;9.180;2023-02-04T10:00:37;98571.28;;;6.03;100.00
11936;BME280;6027;48.576;9.180;2023-02-04T10:03:02;98577.16;;;6.07;100.00
11936;BME280;6027;48.576;9.180;2023-02-04T10:05:32;98578.50;;;6.12;100.00
11936;BME280;6027;48.576;9.180;2023-02-04T10:07:58;98582.53;;;6.05;100.00
11936;BME280;6027;48.576;9.180;2023-02-04T10:10:26;98580.91;;;6.15;100.00
11936;BME280;6027;48.576;9.180;2023-02-04T10:12:55;98585.06;;;6.18;100.00
11936;BME280;6027;48.576;9.180;2023-02-04T10:15:22;98578.28;;;6.15;100.00
11936;BME280;6027;48.576;9.180;2023-02-04T10:17:49;98580.50;;;6.09;100.00
11936;BME280;6027;48.576;9.180;2023-02-04T10:20:21;98571.19;;;6.16;100.00
11936;BME280;6027;48.576;9.180;2023-02-04T10:22:50;98583.78;;;6.23;100.00
11936;BME280;6027;48.576;9.180;2023-02-04T10:25:18;98578.81;;;6.32;100.00
11936;BME280;6027;48.576;9.180;2023-02-04T10:27:52;98581.94;;;6.37;100.00
11936;BME280;6027;48.576;9.180;2023-02-04T10:30:29;98573.34;;;6.35;100.00
11936;BME280;6027;48.576;9.180;2023-02-04T10:32:58;98574.50;;;6.31;100.00
11936;BME280;6027;48.576;9.180;2023-02-04T10:35:24;98572.31;;;6.24;100.00
11936;BME280;6027;48.576;9.180;2023-02-04T10:38:04;98567.06;;;6.24;100.00
11936;BME280;6027;48.576;9.180;2023-02-04T10:40:34;98562.50;;;6.15;100.00
11936;BME280;6027;48.576;9.180;2023-02-04T10:43:13;98565.81;;;6.17;100.00
11936;BME280;6027;48.576;9.180;2023-02-04T10:48:15;98560.78;;;6.38;100.00
11936;BME280;6027;48.576;9.180;2023-02-04T10:50:41;98566.63;;;6.31;100.00
11936;BME280;6027;48.576;9.180;2023-02-04T10:53:09;98559.69;;;6.41;100.00
11936;BME280;6027;48.576;9.180;2023-02-04T10:55:55;98552.44;;;6.55;100.00
11936;BME280;6027;48.576;9.180;2023-02-04T10:58:27;98554.78;;;6.71;100.00
11936;BME280;6027;48.576;9.180;2023-02-04T11:00:52;98556.69;;;6.80;100.00
11936;BME280;6027;48.576;9.180;2023-02-04T11:05:48;98551.44;;;6.91;100.00
11936;BME280;6027;48.576;9.180;2023-02-04T11:08:20;98560.03;;;6.82;100.00
11936;BME280;6027;48.576;9.180;2023-02-04T11:10:49;98550.25;;;6.84;100.00
11936;BME280;6027;48.576;9.180;2023-02-04T11:20:45;98557.19;;;6.85;100.00
11936;BME280;6027;48.576;9.180;2023-02-04T11:33:44;98543.56;;;7.03;100.00
11936;BME280;6027;48.576;9.180;2023-02-04T11:36:11;98548.81;;;7.03;100.00
11936;BME280;6027;48.576;9.180;2023-02-04T11:38:43;98556.81;;;7.12;100.00
11936;BME280;6027;48.576;9.180;2023-02-04T11:41:24;98546.16;;;7.14;94.77
11936;BME280;6027;48.576;9.180;2023-02-04T11:43:52;98532.06;;;7.26;95.51
11936;BME280;6027;48.576;9.180;2023-02-04T11:46:19;98547.84;;;7.15;89.47
11936;BME280;6027;48.576;9.180;2023-02-04T11:48:44;98543.81;;;7.11;90.67
11936;BME280;6027;48.576;9.180;2023-02-04T11:51:15;98548.47;;;7.07;93.32
11936;BME280;6027;48.576;9.180;2023-02-04T11:53:42;98545.94;;;7.06;89.65
11936;BME280;6027;48.576;9.180;2023-02-04T11:56:18;98549.16;;;6.98;94.20
11936;BME280;6027;48.576;9.180;2023-02-04T11:58:44;98541.16;;;6.88;93.20
11936;BME280;6027;48.576;9.180;2023-02-04T12:01:36;98546.88;;;6.82;100.00
11936;BME280;6027;48.576;9.180;2023-02-04T12:04:04;98549.41;;;6.95;100.00
11936;BME280;6027;48.576;9.180;2023-02-04T12:06:33;98552.88;;;6.96;100.00
11936;BME280;6027;48.576;9.180;2023-02-04T12:11:55;98548.56;;;6.83;99.14
11936;BME280;6027;48.576;9.180;2023-02-04T12:14:21;98548.09;;;6.89;99.65
11936;BME280;6027;48.576;9.180;2023-02-04T12:16:52;98565.66;;;6.78;99.45
11936;BME280;6027;48.576;9.180;2023-02-04T12:19:17;98559.53;;;6.66;100.00
11936;BME280;6027;48.576;9.180;2023-02-04T12:21:43;98554.28;;;6.66;100.00
11936;BME280;6027;48.576;9.180;2023-02-04T12:24:09;98563.13;;;6.76;100.00
11936;BME280;6027;48.576;9.180;2023-02-04T12:26:34;98561.94;;;6.80;100.00
11936;BME280;6027;48.576;9.180;2023-02-04T12:29:00;98572.59;;;6.79;100.00
11936;BME280;6027;48.576;9.180;2023-02-04T12:31:31;98570.56;;;6.93;100.00
11936;BME280;6027;48.576;9.180;2023-02-04T12:33:57;98564.63;;;6.91;100.00
11936;BME280;6027;48.576;9.180;2023-02-04T12:36:23;98562.94;;;6.90;98.02
11936;BME280;6027;48.576;9.180;2023-02-04T12:38:51;98568.44;;;6.87;97.13
11936;BME280;6027;48.576;9.180;2023-02-04T12:41:18;98561.59;;;6.85;96.81
11936;BME280;6027;48.576;9.180;2023-02-04T12:46:19;98568.78;;;6.83;98.42
11936;BME280;6027;48.576;9.180;2023-02-04T12:48:44;98571.03;;;6.76;99.58
11936;BME280;6027;48.576;9.180;2023-02-04T12:51:10;98582.44;;;6.88;100.00
11936;BME280;6027;48.576;9.180;2023-02-04T12:53:35;98575.56;;;6.74;100.00
11936;BME280;6027;48.576;9.180;2023-02-04T12:56:01;98577.38;;;6.74;99.75
11936;BME280;6027;48.576;9.180;2023-02-04T12:58:26;98578.69;;;6.68;100.00
11936;BME280;6027;48.576;9.180;2023-02-04T13:00:52;98576.00;;;6.57;100.00
11936;BME280;6027;48.576;9.180;2023-02-04T13:03:17;98575.78;;;6.49;100.00
11936;BME280;6027;48.576;9.180;2023-02-04T13:05:43;98573.63;;;6.54;100.00
11936;BME280;6027;48.576;9.180;2023-02-04T13:08:08;98576.28;;;6.54;99.94
11936;BME280;6027;48.576;9.180;2023-02-04T13:10:34;98584.16;;;6.54;98.71
11936;BME280;6027;48.576;9.180;2023-02-04T13:12:59;98580.31;;;6.58;98.84
11936;BME280;6027;48.576;9.180;2023-02-04T13:15:25;98579.75;;;6.66;100.00
11936;BME280;6027;48.576;9.180;2023-02-04T13:17:51;98573.75;;;6.52;98.87
11936;BME280;6027;48.576;9.180;2023-02-04T13:20:17;98569.44;;;6.51;100.00
11936;BME280;6027;48.576;9.180;2023-02-04T13:22:43;98570.88;;;6.55;99.61
11936;BME280;6027;48.576;9.180;2023-02-04T13:25:08;98571.00;;;6.54;98.72
11936;BME280;6027;48.576;9.180;2023-02-04T13:27:36;98581.06;;;6.60;99.22
11936;BME280;6027;48.576;9.180;2023-02-04T13:30:04;98575.78;;;6.60;98.97
11936;BME280;6027;48.576;9.180;2023-02-04T13:32:29;98572.44;;;6.58;98.33
11936;BME280;6027;48.576;9.180;2023-02-04T13:34:54;98577.63;;;6.71;98.15
11936;BME280;6027;48.576;9.180;2023-02-04T13:37:20;98574.28;;;6.80;95.21
11936;BME280;6027;48.576;9.180;2023-02-04T13:39:45;98573.44;;;6.79;94.16
11936;BME280;6027;48.576;9.180;2023-02-04T13:42:11;98571.41;;;6.83;88.76
11936;BME280;6027;48.576;9.180;2023-02-04T13:44:36;98572.25;;;6.83;88.58
11936;BME280;6027;48.576;9.180;2023-02-04T13:47:01;98581.25;;;6.92;88.40
11936;BME280;6027;48.576;9.180;2023-02-04T13:49:27;98584.13;;;7.00;89.23
11936;BME280;6027;48.576;9.180;2023-02-04T13:51:52;98583.50;;;6.97;87.33
11936;BME280;6027;48.576;9.180;2023-02-04T13:54:17;98582.31;;;7.01;87.68